Time;durP1;ratioP1;P1;durP2;ratioP2;P2;SDS_P1;SDS_P2;PMS_P1;PMS_P2;Temp;Humidity;BMP_temperature;BMP_pressure;BME280_temperature;BME280_humidity;BME280_pressure;Samples;Min_cycle;Max_cycle;Signal;HPM_P1;HPM_P2
2024/01/28 00:01:55;;;;;;;41.88;39.75;;;;;;;;;;4215322;28;20044;-61
2024/01/28 00:03:57;;;;;;;44.42;42.08;;;;;;;;;;4215245;28;20508;-61
2024/01/28 00:05:59;;;;;;;42.25;40.10;;;;;;;;;;4215254;28;20055;-61
2024/01/28 00:08:03;;;;;;;39.38;37.70;;;;;;;;;;4215382;28;20044;-61
2024/01/28 00:10:06;;;;;;;41.13;39.08;;;;;;;;;;4215231;28;20119;-61
2024/01/28 00:12:08;;;;;;;36.22;34.55;;;;;;;;;;4214969;28;20040;-61
2024/01/28 00:14:10;;;;;;;37.03;35.63;;;;;;;;;;4214994;28;20123;-61
2024/01/28 00:16:18;;;;;;;45.60;42.35;;;;;;;;;;4215282;28;20142;-61
2024/01/28 00:18:20;;;;;;;49.30;45.97;;;;;;;;;;4215174;28;20123;-61
2024/01/28 00:20:22;;;;;;;56.28;52.35;;;;;;;;;;4215038;28;20517;-61
2024/01/28 00:22:23;;;;;;;59.78;54.85;;;;;;;;;;4214723;28;20044;-61
2024/01/28 00:24:27;;;;;;;55.63;51.57;;;;;;;;;;4214769;28;20101;-61
2024/01/28 00:26:29;;;;;;;56.10;51.50;;;;;;;;;;4214783;28;20427;-60
2024/01/28 00:28:31;;;;;;;54.17;50.05;;;;;;;;;;4214768;28;20483;-61
2024/01/28 00:30:33;;;;;;;43.10;41.00;;;;;;;;;;4214919;28;20085;-61
2024/01/28 00:32:35;;;;;;;46.50;43.33;;;;;;;;;;4214653;28;20036;-60
2024/01/28 00:34:36;;;;;;;48.30;44.72;;;;;;;;;;4214963;28;20044;-60
2024/01/28 00:36:41;;;;;;;49.42;46.30;;;;;;;;;;4214853;28;20082;-61
2024/01/28 00:38:43;;;;;;;46.00;43.28;;;;;;;;;;4214695;28;20044;-60
2024/01/28 00:40:44;;;;;;;45.27;42.67;;;;;;;;;;4214205;28;20032;-61
2024/01/28 00:42:46;;;;;;;47.05;44.42;;;;;;;;;;4214909;28;20036;-61
2024/01/28 00:44:48;;;;;;;49.22;46.40;;;;;;;;;;4200005;28;20033;-61
2024/01/28 00:46:50;;;;;;;46.33;43.95;;;;;;;;;;4196759;28;20492;-60
2024/01/28 00:48:52;;;;;;;48.05;45.03;;;;;;;;;;4209556;28;20085;-61
2024/01/28 00:50:54;;;;;;;50.63;47.75;;;;;;;;;;4213479;28;20044;-60
2024/01/28 00:52:55;;;;;;;50.55;47.53;;;;;;;;;;4214431;28;20116;-61
2024/01/28 00:54:57;;;;;;;50.25;47.25;;;;;;;;;;4214391;28;20036;-61
2024/01/28 00:56:59;;;;;;;48.70;45.80;;;;;;;;;;4214214;28;20515;-61
2024/01/28 00:59:01;;;;;;;52.42;49.22;;;;;;;;;;4214298;28;20488;-60
2024/01/28 01:01:03;;;;;;;49.20;46.13;;;;;;;;;;4214099;28;20040;-61
2024/01/28 01:03:05;;;;;;;51.05;47.45;;;;;;;;;;4214302;28;20074;-60
2024/01/28 01:05:06;;;;;;;53.15;49.85;;;;;;;;;;4213637;28;20040;-61
2024/01/28 01:07:09;;;;;;;50.83;47.92;;;;;;;;;;4214357;28;20071;-60
2024/01/28 01:09:11;;;;;;;51.05;47.97;;;;;;;;;;4210343;28;20094;-61
2024/01/28 01:11:12;;;;;;;48.78;45.55;;;;;;;;;;4197680;28;20485;-61
2024/01/28 01:13:14;;;;;;;47.87;44.90;;;;;;;;;;4197554;28;20051;-60
2024/01/28 01:15:16;;;;;;;47.08;44.88;;;;;;;;;;4197646;28;20036;-61
2024/01/28 01:17:20;;;;;;;45.30;42.92;;;;;;;;;;4197373;28;20086;-60
2024/01/28 01:19:21;;;;;;;42.78;40.78;;;;;;;;;;4197680;28;20094;-61
2024/01/28 01:21:23;;;;;;;45.45;42.97;;;;;;;;;;4199055;28;20059;-61
2024/01/28 01:23:25;;;;;;;48.17;45.58;;;;;;;;;;4214083;28;20078;-61
2024/01/28 01:25:26;;;;;;;46.10;43.97;;;;;;;;;;4214111;28;20040;-61
2024/01/28 01:27:28;;;;;;;42.43;40.37;;;;;;;;;;4213820;28;20044;-60
2024/01/28 01:29:32;;;;;;;42.08;40.22;;;;;;;;;;4213875;28;20380;-60
2024/01/28 01:31:34;;;;;;;41.47;39.67;;;;;;;;;;4214125;28;20036;-62
2024/01/28 01:33:36;;;;;;;42.42;40.53;;;;;;;;;;4214085;28;20506;-61
2024/01/28 01:35:37;;;;;;;41.07;39.57;;;;;;;;;;4212891;28;20036;-61
2024/01/28 01:37:39;;;;;;;40.88;39.40;;;;;;;;;;4213641;28;20293;-61
2024/01/28 01:39:41;;;;;;;40.17;38.50;;;;;;;;;;4209197;28;20048;-61
2024/01/28 01:41:43;;;;;;;38.08;36.78;;;;;;;;;;4197411;28;20540;-61
2024/01/28 01:43:45;;;;;;;41.70;40.05;;;;;;;;;;4196911;28;20041;-61
2024/01/28 01:45:47;;;;;;;40.17;38.40;;;;;;;;;;4197100;28;20066;-61
2024/01/28 01:47:49;;;;;;;42.22;40.22;;;;;;;;;;4200715;28;20328;-60
2024/01/28 01:49:51;;;;;;;37.10;35.63;;;;;;;;;;4212395;28;20078;-60
2024/01/28 01:51:53;;;;;;;40.38;38.78;;;;;;;;;;4213917;28;20063;-60
2024/01/28 01:53:55;;;;;;;37.28;35.88;;;;;;;;;;4214137;28;20098;-60
2024/01/28 01:55:57;;;;;;;39.65;38.13;;;;;;;;;;4213691;28;20036;-61
2024/01/28 01:57:58;;;;;;;37.85;36.55;;;;;;;;;;4212711;28;20503;-61
2024/01/28 02:00:00;;;;;;;40.30;38.93;;;;;;;;;;4213588;28;20408;-61
2024/01/28 02:02:05;;;;;;;38.38;37.08;;;;;;;;;;4213978;28;20339;-61
2024/01/28 02:04:06;;;;;;;40.75;39.15;;;;;;;;;;4209276;28;20047;-61
2024/01/28 02:06:13;;;;;;;43.08;41.40;;;;;;;;;;4196774;28;20052;-61
2024/01/28 02:08:14;;;;;;;37.85;36.35;;;;;;;;;;4201557;28;20094;-61
2024/01/28 02:10:16;;;;;;;42.10;40.53;;;;;;;;;;4210850;28;20044;-61
2024/01/28 02:12:18;;;;;;;41.77;39.93;;;;;;;;;;4213882;28;20063;-61
2024/01/28 02:14:20;;;;;;;38.70;36.53;;;;;;;;;;4213834;28;20032;-61
2024/01/28 02:16:24;;;;;;;39.03;37.58;;;;;;;;;;4213711;28;20070;-61
2024/01/28 02:18:25;;;;;;;41.00;39.47;;;;;;;;;;4213467;28;20093;-61
2024/01/28 02:20:27;;;;;;;41.00;39.55;;;;;;;;;;4195615;28;20048;-61
2024/01/28 02:22:29;;;;;;;36.92;35.50;;;;;;;;;;4213155;28;20066;-61
2024/01/28 02:24:31;;;;;;;38.00;36.47;;;;;;;;;;4213587;28;20047;-61
2024/01/28 02:26:32;;;;;;;39.92;38.10;;;;;;;;;;4213556;28;20067;-61
2024/01/28 02:28:34;;;;;;;38.83;37.40;;;;;;;;;;4213503;28;20185;-61
2024/01/28 02:30:36;;;;;;;42.23;40.80;;;;;;;;;;4213556;28;20043;-61
2024/01/28 02:32:45;;;;;;;37.90;36.53;;;;;;;;;;4213517;28;20430;-61
2024/01/28 02:34:47;;;;;;;40.00;38.35;;;;;;;;;;4213445;28;20292;-62
2024/01/28 02:36:51;;;;;;;42.08;40.50;;;;;;;;;;4203113;28;20076;-61
2024/01/28 02:38:54;;;;;;;38.85;37.35;;;;;;;;;;4198557;28;20447;-62
2024/01/28 02:40:56;;;;;;;39.65;38.25;;;;;;;;;;4199506;28;20059;-62
2024/01/28 02:42:58;;;;;;;43.33;41.60;;;;;;;;;;4199684;28;20575;-61
2024/01/28 02:44:59;;;;;;;42.93;41.23;;;;;;;;;;4199736;28;20685;-61
2024/01/28 02:47:01;;;;;;;38.30;36.72;;;;;;;;;;4199522;28;20366;-62
2024/01/28 02:49:03;;;;;;;40.17;38.77;;;;;;;;;;4212893;28;20047;-61
2024/01/28 02:51:05;;;;;;;38.05;36.72;;;;;;;;;;4214602;28;20139;-61
2024/01/28 02:53:06;;;;;;;40.65;39.10;;;;;;;;;;4213562;28;20115;-62
2024/01/28 02:55:08;;;;;;;40.40;38.83;;;;;;;;;;4215434;28;20042;-61
2024/01/28 02:57:10;;;;;;;41.30;39.90;;;;;;;;;;4214500;28;20047;-61
2024/01/28 02:59:13;;;;;;;40.10;38.40;;;;;;;;;;4214738;28;20119;-61
2024/01/28 03:01:16;;;;;;;38.85;37.35;;;;;;;;;;4216282;28;20123;-61
2024/01/28 03:03:18;;;;;;;38.13;36.85;;;;;;;;;;4215022;28;20043;-61
2024/01/28 03:05:19;;;;;;;39.13;37.78;;;;;;;;;;4215858;28;20568;-61
2024/01/28 03:07:21;;;;;;;39.97;38.67;;;;;;;;;;4216363;28;20043;-61
2024/01/28 03:09:26;;;;;;;41.50;39.90;;;;;;;;;;4216080;28;20377;-61
2024/01/28 03:11:27;;;;;;;39.78;38.20;;;;;;;;;;4216443;28;20046;-62
2024/01/28 03:13:31;;;;;;;40.22;38.65;;;;;;;;;;4216052;28;20589;-61
2024/01/28 03:15:33;;;;;;;40.17;38.65;;;;;;;;;;4215979;28;20480;-61
2024/01/28 03:17:35;;;;;;;36.03;34.75;;;;;;;;;;4214452;28;20036;-61
2024/01/28 03:19:37;;;;;;;41.85;40.17;;;;;;;;;;4199235;28;20040;-61
2024/01/28 03:21:38;;;;;;;41.97;40.33;;;;;;;;;;4203163;28;20370;-61
2024/01/28 03:23:40;;;;;;;40.40;38.60;;;;;;;;;;4215822;28;20086;-61
2024/01/28 03:25:43;;;;;;;43.85;41.78;;;;;;;;;;4215918;28;20089;-61
2024/01/28 03:27:45;;;;;;;44.85;42.42;;;;;;;;;;4215756;28;20665;-61
2024/01/28 03:29:46;;;;;;;43.28;40.80;;;;;;;;;;4215951;28;20513;-61
2024/01/28 03:31:48;;;;;;;48.55;45.92;;;;;;;;;;4215729;28;20066;-61
2024/01/28 03:33:50;;;;;;;45.30;42.92;;;;;;;;;;4199065;28;20041;-61
2024/01/28 03:35:52;;;;;;;45.80;43.05;;;;;;;;;;4198897;28;20041;-61
2024/01/28 03:37:54;;;;;;;44.25;41.88;;;;;;;;;;4198776;28;20068;-61
2024/01/28 03:39:56;;;;;;;46.13;44.03;;;;;;;;;;4197380;28;20060;-61
2024/01/28 03:41:57;;;;;;;42.33;40.50;;;;;;;;;;4198772;28;20143;-61
2024/01/28 03:43:59;;;;;;;42.93;40.63;;;;;;;;;;4198797;28;20290;-61
2024/01/28 03:46:01;;;;;;;43.20;41.50;;;;;;;;;;4198746;28;20041;-61
2024/01/28 03:48:03;;;;;;;47.35;45.17;;;;;;;;;;4204257;28;20541;-61
2024/01/28 03:50:05;;;;;;;44.28;41.90;;;;;;;;;;4215212;28;20036;-61
2024/01/28 03:52:07;;;;;;;45.58;43.45;;;;;;;;;;4215467;28;20411;-61
2024/01/28 03:54:09;;;;;;;47.53;45.30;;;;;;;;;;4215560;28;20114;-61
2024/01/28 03:56:10;;;;;;;42.20;40.53;;;;;;;;;;4215553;28;20134;-61
2024/01/28 03:58:14;;;;;;;44.92;42.75;;;;;;;;;;4215254;28;20036;-61
2024/01/28 04:00:18;;;;;;;42.80;41.10;;;;;;;;;;4215107;28;20490;-61
2024/01/28 04:02:22;;;;;;;45.70;43.20;;;;;;;;;;4215236;28;20290;-61
2024/01/28 04:04:24;;;;;;;49.10;46.20;;;;;;;;;;4215234;28;20047;-62
2024/01/28 04:06:25;;;;;;;48.47;45.97;;;;;;;;;;4215127;28;20044;-61
2024/01/28 04:08:27;;;;;;;41.10;39.30;;;;;;;;;;4215438;28;20128;-62
2024/01/28 04:10:29;;;;;;;46.45;44.17;;;;;;;;;;4214860;28;20040;-61
2024/01/28 04:12:30;;;;;;;44.35;42.45;;;;;;;;;;4213832;28;20032;-62
2024/01/28 04:14:33;;;;;;;44.40;42.50;;;;;;;;;;4206699;28;20488;-61
2024/01/28 04:16:34;;;;;;;43.13;41.33;;;;;;;;;;4198297;28;20119;-61
2024/01/28 04:18:36;;;;;;;42.23;40.57;;;;;;;;;;4198437;28;20481;-62
2024/01/28 04:20:38;;;;;;;44.27;42.33;;;;;;;;;;4197229;28;20437;-61
2024/01/28 04:22:40;;;;;;;41.45;39.83;;;;;;;;;;4210388;28;20487;-62
2024/01/28 04:24:41;;;;;;;45.17;42.55;;;;;;;;;;4214884;28;20048;-62
2024/01/28 04:26:43;;;;;;;45.15;42.92;;;;;;;;;;4199032;28;20048;-62
2024/01/28 04:28:48;;;;;;;41.75;40.20;;;;;;;;;;4198051;28;20032;-61
2024/01/28 04:30:52;;;;;;;41.72;39.65;;;;;;;;;;4198192;28;20043;-62
2024/01/28 04:32:53;;;;;;;46.13;43.63;;;;;;;;;;4198273;28;20037;-62
2024/01/28 04:34:55;;;;;;;42.43;40.47;;;;;;;;;;4198117;28;20293;-62
2024/01/28 04:36:57;;;;;;;42.33;40.37;;;;;;;;;;4198250;28;20044;-62
2024/01/28 04:38:59;;;;;;;44.22;42.25;;;;;;;;;;4197779;28;20535;-62
2024/01/28 04:41:01;;;;;;;47.83;45.33;;;;;;;;;;4197642;28;20055;-61
2024/01/28 04:43:02;;;;;;;41.53;39.77;;;;;;;;;;4197711;28;20086;-62
2024/01/28 04:45:04;;;;;;;45.47;43.58;;;;;;;;;;4197863;28;20332;-61
2024/01/28 04:47:09;;;;;;;42.80;41.08;;;;;;;;;;4198163;28;20098;-61
2024/01/28 04:49:11;;;;;;;43.90;42.10;;;;;;;;;;4212937;28;20511;-62
2024/01/28 04:51:12;;;;;;;45.20;43.25;;;;;;;;;;4214529;28;20502;-61
2024/01/28 04:53:14;;;;;;;44.33;42.60;;;;;;;;;;4213413;28;20052;-61
2024/01/28 04:55:16;;;;;;;47.70;45.60;;;;;;;;;;4214386;28;20097;-62
2024/01/28 04:57:17;;;;;;;43.47;41.78;;;;;;;;;;4214641;28;20454;-62
2024/01/28 04:59:19;;;;;;;44.70;42.43;;;;;;;;;;4214313;28;20072;-61
2024/01/28 05:01:23;;;;;;;41.85;40.03;;;;;;;;;;4213681;28;20044;-62
2024/01/28 05:03:28;;;;;;;41.55;40.00;;;;;;;;;;4214592;28;20036;-61
2024/01/28 05:05:30;;;;;;;42.35;40.85;;;;;;;;;;4214304;28;20047;-61
2024/01/28 05:07:32;;;;;;;42.40;40.73;;;;;;;;;;4214460;28;20050;-61
2024/01/28 05:09:33;;;;;;;39.95;38.65;;;;;;;;;;4214412;28;20044;-62
2024/01/28 05:11:35;;;;;;;41.05;39.55;;;;;;;;;;4199986;28;20097;-61
2024/01/28 05:13:37;;;;;;;42.27;40.50;;;;;;;;;;4197914;28;20536;-61
2024/01/28 05:15:38;;;;;;;43.28;41.47;;;;;;;;;;4197291;28;20128;-61
2024/01/28 05:17:40;;;;;;;44.70;43.00;;;;;;;;;;4197734;28;20123;-61
2024/01/28 05:19:42;;;;;;;44.00;42.27;;;;;;;;;;4197642;28;20309;-62
2024/01/28 05:21:44;;;;;;;42.35;40.75;;;;;;;;;;4202473;28;20653;-61
2024/01/28 05:23:49;;;;;;;42.03;40.53;;;;;;;;;;4214055;28;20130;-61
2024/01/28 05:25:50;;;;;;;42.08;40.67;;;;;;;;;;4201136;28;20051;-62
2024/01/28 05:27:52;;;;;;;41.23;39.57;;;;;;;;;;4197587;28;20535;-61
2024/01/28 05:29:55;;;;;;;37.60;36.20;;;;;;;;;;4197481;28;20400;-61
2024/01/28 05:31:59;;;;;;;43.88;42.28;;;;;;;;;;4197430;28;20061;-62
2024/01/28 05:34:01;;;;;;;41.47;39.92;;;;;;;;;;4197449;28;20036;-61
2024/01/28 05:36:10;;;;;;;41.22;39.80;;;;;;;;;;4197257;28;20043;-62
2024/01/28 05:38:12;;;;;;;42.65;41.15;;;;;;;;;;4195626;28;20041;-61
2024/01/28 05:40:14;;;;;;;43.22;41.42;;;;;;;;;;4197032;28;20435;-61
2024/01/28 05:42:16;;;;;;;42.90;41.27;;;;;;;;;;4197556;28;20041;-61
2024/01/28 05:44:18;;;;;;;44.95;43.10;;;;;;;;;;4197194;28;20290;-61
2024/01/28 05:46:19;;;;;;;44.33;42.58;;;;;;;;;;4197163;28;20036;-61
2024/01/28 05:48:21;;;;;;;40.42;39.22;;;;;;;;;;4205141;28;20113;-61
2024/01/28 05:50:23;;;;;;;43.58;42.05;;;;;;;;;;4213739;28;20492;-61
2024/01/28 05:52:25;;;;;;;43.25;41.58;;;;;;;;;;4212745;28;20050;-61
2024/01/28 05:54:26;;;;;;;41.87;40.07;;;;;;;;;;4214132;28;20048;-61
2024/01/28 05:56:28;;;;;;;38.15;36.75;;;;;;;;;;4213738;28;20410;-61
2024/01/28 05:58:30;;;;;;;39.75;38.28;;;;;;;;;;4213824;28;20391;-61
2024/01/28 06:00:31;;;;;;;42.27;40.47;;;;;;;;;;4213699;28;20032;-61
2024/01/28 06:02:33;;;;;;;43.07;41.57;;;;;;;;;;4213787;28;20396;-61
2024/01/28 06:04:35;;;;;;;38.30;37.03;;;;;;;;;;4213637;28;20278;-61
2024/01/28 06:06:36;;;;;;;42.92;41.25;;;;;;;;;;4210014;28;20033;-61
2024/01/28 06:08:40;;;;;;;41.08;39.80;;;;;;;;;;4197188;28;20102;-61
2024/01/28 06:10:42;;;;;;;43.45;41.50;;;;;;;;;;4195781;28;20143;-61
2024/01/28 06:12:44;;;;;;;40.17;38.77;;;;;;;;;;4198887;28;20066;-61
2024/01/28 06:14:45;;;;;;;43.17;41.72;;;;;;;;;;4200161;28;20635;-61
2024/01/28 06:16:50;;;;;;;43.78;42.08;;;;;;;;;;4200380;28;20048;-61
2024/01/28 06:18:52;;;;;;;44.30;42.60;;;;;;;;;;4212855;28;20455;-61
2024/01/28 06:20:54;;;;;;;43.78;42.28;;;;;;;;;;4212727;28;20094;-61
2024/01/28 06:22:55;;;;;;;40.85;39.25;;;;;;;;;;4214710;28;20048;-61
2024/01/28 06:25:01;;;;;;;47.97;45.97;;;;;;;;;;4216808;28;20044;-61
2024/01/28 06:27:02;;;;;;;50.83;48.42;;;;;;;;;;4216712;28;20051;-61
2024/01/28 06:29:04;;;;;;;45.67;43.30;;;;;;;;;;4217005;28;20047;-61
2024/01/28 06:31:06;;;;;;;43.50;41.20;;;;;;;;;;4216594;28;20071;-61
2024/01/28 06:33:10;;;;;;;40.80;39.17;;;;;;;;;;4213731;28;20040;-61
2024/01/28 06:35:12;;;;;;;42.75;41.15;;;;;;;;;;4216571;28;20478;-61
2024/01/28 06:37:14;;;;;;;46.13;43.90;;;;;;;;;;4212400;28;20044;-62
2024/01/28 06:39:15;;;;;;;49.42;46.08;;;;;;;;;;4213207;28;20381;-61
2024/01/28 06:41:17;;;;;;;49.90;47.50;;;;;;;;;;4216285;28;20101;-61
2024/01/28 06:43:19;;;;;;;47.60;45.60;;;;;;;;;;4216585;28;20294;-61
2024/01/28 06:45:21;;;;;;;42.47;40.78;;;;;;;;;;4216473;28;20051;-62
2024/01/28 06:47:22;;;;;;;79.03;71.23;;;;;;;;;;4216125;28;20418;-61
2024/01/28 06:49:25;;;;;;;56.53;52.47;;;;;;;;;;4215771;28;20650;-62
2024/01/28 06:51:28;;;;;;;;;;;;;;;;;;4215422;28;20115;-61
2024/01/28 06:53:30;;;;;;;;;;;;;;;;;;4216991;28;19942;-62
2024/01/28 06:55:31;;;;;;;47.00;45.15;;;;;;;;;;4207707;28;19950;-61
2024/01/28 06:57:33;;;;;;;42.80;41.30;;;;;;;;;;4214446;28;20119;-61
2024/01/28 06:59:35;;;;;;;45.75;44.13;;;;;;;;;;4216149;28;20040;-61
2024/01/28 07:01:37;;;;;;;53.28;50.33;;;;;;;;;;4216261;28;20526;-61
2024/01/28 07:03:38;;;;;;;49.03;46.83;;;;;;;;;;4205765;28;20095;-61
2024/01/28 07:05:40;;;;;;;47.53;45.53;;;;;;;;;;4199530;28;20340;-61
2024/01/28 07:07:42;;;;;;;47.97;45.92;;;;;;;;;;4199508;28;20286;-61
2024/01/28 07:09:44;;;;;;;48.77;46.33;;;;;;;;;;4197992;28;20051;-61
2024/01/28 07:11:47;;;;;;;43.97;42.15;;;;;;;;;;4199120;28;20127;-62
2024/01/28 07:13:49;;;;;;;44.80;42.83;;;;;;;;;;4201013;28;20123;-62
2024/01/28 07:15:50;;;;;;;43.10;41.50;;;;;;;;;;4216078;28;20115;-61
2024/01/28 07:17:52;;;;;;;42.67;41.05;;;;;;;;;;4208606;28;20408;-61
2024/01/28 07:19:54;;;;;;;42.90;41.30;;;;;;;;;;4216064;28;20046;-61
2024/01/28 07:21:56;;;;;;;50.85;47.78;;;;;;;;;;4215871;28;20040;-61
2024/01/28 07:23:58;;;;;;;42.85;41.22;;;;;;;;;;4215004;28;20043;-62
2024/01/28 07:26:00;;;;;;;44.20;42.70;;;;;;;;;;4214597;28;20915;-62
2024/01/28 07:28:03;;;;;;;42.97;41.60;;;;;;;;;;4213106;28;20089;-61
2024/01/28 07:30:06;;;;;;;42.40;41.15;;;;;;;;;;4210945;28;20048;-61
2024/01/28 07:32:08;;;;;;;42.33;40.78;;;;;;;;;;4208608;28;20036;-62
2024/01/28 07:34:12;;;;;;;39.45;38.33;;;;;;;;;;4198783;28;20045;-62
2024/01/28 07:36:15;;;;;;;43.63;41.60;;;;;;;;;;4198793;28;20045;-62
2024/01/28 07:38:17;;;;;;;41.13;39.92;;;;;;;;;;4198803;28;20044;-61
2024/01/28 07:40:19;;;;;;;41.45;40.25;;;;;;;;;;4198513;28;20094;-61
2024/01/28 07:42:20;;;;;;;38.77;37.67;;;;;;;;;;4198978;28;20041;-62
2024/01/28 07:44:23;;;;;;;39.05;37.95;;;;;;;;;;4203855;28;20036;-61
2024/01/28 07:46:25;;;;;;;40.55;39.28;;;;;;;;;;4215626;28;20477;-61
2024/01/28 07:48:27;;;;;;;39.15;37.80;;;;;;;;;;4208913;28;20106;-61
2024/01/28 07:50:29;;;;;;;43.33;41.73;;;;;;;;;;4199083;28;20056;-61
2024/01/28 07:52:32;;;;;;;39.13;37.85;;;;;;;;;;4198782;28;20036;-61
2024/01/28 07:54:34;;;;;;;41.90;40.33;;;;;;;;;;4198666;28;20508;-61
2024/01/28 07:56:36;;;;;;;40.75;39.33;;;;;;;;;;4198907;28;20127;-62
2024/01/28 07:58:38;;;;;;;40.97;39.47;;;;;;;;;;4198541;28;20068;-61
2024/01/28 08:00:39;;;;;;;38.63;37.53;;;;;;;;;;4198412;28;20044;-62
2024/01/28 08:02:41;;;;;;;38.13;36.97;;;;;;;;;;4198748;28;20051;-61
2024/01/28 08:04:46;;;;;;;38.10;36.70;;;;;;;;;;4198447;28;20041;-61
2024/01/28 08:06:47;;;;;;;39.55;38.40;;;;;;;;;;4198432;28;20071;-61
2024/01/28 08:08:50;;;;;;;37.80;36.78;;;;;;;;;;4198899;28;20094;-61
2024/01/28 08:10:51;;;;;;;40.13;39.00;;;;;;;;;;4206604;28;20039;-61
2024/01/28 08:12:53;;;;;;;39.42;37.92;;;;;;;;;;4214948;28;20040;-61
2024/01/28 08:14:55;;;;;;;49.23;46.30;;;;;;;;;;4199440;28;20508;-61
2024/01/28 08:16:56;;;;;;;45.40;42.90;;;;;;;;;;4198602;28;20310;-61
2024/01/28 08:18:58;;;;;;;40.63;39.33;;;;;;;;;;4209156;28;20036;-61
2024/01/28 08:21:03;;;;;;;44.70;42.45;;;;;;;;;;4214951;28;20281;-62
2024/01/28 08:23:04;;;;;;;38.30;37.10;;;;;;;;;;4213803;28;20472;-61
2024/01/28 08:25:06;;;;;;;33.97;32.97;;;;;;;;;;4214083;28;20115;-62
2024/01/28 08:27:08;;;;;;;40.75;39.35;;;;;;;;;;4211551;28;20488;-61
2024/01/28 08:29:11;;;;;;;40.60;39.20;;;;;;;;;;4199448;28;20037;-62
2024/01/28 08:31:13;;;;;;;;;;;;;;;;;;4212226;28;20320;-61
2024/01/28 08:33:14;;;;;;;39.40;38.05;;;;;;;;;;4208383;28;19924;-61
2024/01/28 08:35:17;;;;;;;40.07;38.80;;;;;;;;;;4207251;28;20048;-61
2024/01/28 08:37:21;;;;;;;;;;;;;;;;;;4208811;28;20320;-61
2024/01/28 08:39:23;;;;;;;44.50;42.58;;;;;;;;;;4214283;28;19928;-61
2024/01/28 08:41:24;;;;;;;38.67;37.33;;;;;;;;;;4214350;28;20447;-61
2024/01/28 08:43:26;;;;;;;38.97;37.70;;;;;;;;;;4214617;28;20097;-62
2024/01/28 08:45:28;;;;;;;41.80;39.78;;;;;;;;;;4213704;28;20040;-61
2024/01/28 08:47:29;;;;;;;37.87;36.37;;;;;;;;;;4208936;28;20048;-61
2024/01/28 08:49:33;;;;;;;38.45;37.08;;;;;;;;;;4214138;28;20040;-62
2024/01/28 08:51:35;;;;;;;37.92;36.70;;;;;;;;;;4214450;28;20035;-61
2024/01/28 08:53:36;;;;;;;42.70;40.70;;;;;;;;;;4213348;28;20036;-62
2024/01/28 08:55:38;;;;;;;38.78;37.30;;;;;;;;;;4207418;28;20039;-62
2024/01/28 08:57:40;;;;;;;39.85;38.15;;;;;;;;;;4201247;28;20028;-61
2024/01/28 08:59:42;;;;;;;41.60;39.90;;;;;;;;;;4209591;28;20454;-62
2024/01/28 09:01:44;;;;;;;37.85;36.33;;;;;;;;;;4207771;28;20286;-61
2024/01/28 09:03:46;;;;;;;38.03;36.70;;;;;;;;;;4206381;28;20120;-61
2024/01/28 09:05:48;;;;;;;40.00;38.17;;;;;;;;;;4211378;28;20071;-62
2024/01/28 09:07:51;;;;;;;38.08;36.50;;;;;;;;;;4212802;28;20043;-61
2024/01/28 09:09:53;;;;;;;38.10;36.83;;;;;;;;;;4209499;28;20111;-62
2024/01/28 09:11:55;;;;;;;37.47;36.35;;;;;;;;;;4199714;28;20419;-61
2024/01/28 09:14:01;;;;;;;36.50;35.03;;;;;;;;;;4209511;28;20143;-61
2024/01/28 09:16:02;;;;;;;36.53;35.25;;;;;;;;;;4213760;28;20070;-61
2024/01/28 09:18:04;;;;;;;34.63;33.63;;;;;;;;;;4210615;28;20039;-61
2024/01/28 09:20:07;;;;;;;37.17;35.75;;;;;;;;;;4214303;28;20040;-61
2024/01/28 09:22:08;;;;;;;36.45;35.10;;;;;;;;;;4213938;28;20466;-61
2024/01/28 09:24:10;;;;;;;34.85;33.53;;;;;;;;;;4211833;28;20068;-61
2024/01/28 09:26:11;;;;;;;35.38;34.08;;;;;;;;;;4205957;28;20037;-61
2024/01/28 09:28:13;;;;;;;34.70;33.65;;;;;;;;;;4197146;28;20408;-61
2024/01/28 09:30:15;;;;;;;36.83;35.47;;;;;;;;;;4197096;28;20052;-61
2024/01/28 09:32:18;;;;;;;34.25;32.97;;;;;;;;;;4202635;28;20047;-61
2024/01/28 09:34:23;;;;;;;34.30;32.88;;;;;;;;;;4210069;28;20040;-62
2024/01/28 09:36:25;;;;;;;33.38;32.28;;;;;;;;;;4213877;28;20037;-61
2024/01/28 09:38:26;;;;;;;35.28;33.88;;;;;;;;;;4212449;28;20044;-61
2024/01/28 09:40:28;;;;;;;34.40;32.90;;;;;;;;;;4206731;28;20644;-62
2024/01/28 09:42:51;;;;;;;33.00;31.60;;;;;;;;;;4212719;28;20062;-62
2024/01/28 09:45:00;;;;;;;35.45;33.83;;;;;;;;;;4213088;28;20893;-61
2024/01/28 09:47:02;;;;;;;34.63;33.17;;;;;;;;;;4212226;28;20086;-61
2024/01/28 09:49:04;;;;;;;35.55;33.78;;;;;;;;;;4213183;28;20046;-62
2024/01/28 09:51:08;;;;;;;37.85;35.45;;;;;;;;;;4206368;28;20098;-61
2024/01/28 09:53:13;;;;;;;37.85;35.17;;;;;;;;;;4213744;28;20032;-61
2024/01/28 09:55:14;;;;;;;30.92;29.65;;;;;;;;;;4213250;28;20036;-62
2024/01/28 09:57:17;;;;;;;41.17;38.10;;;;;;;;;;4209833;28;20036;-61
2024/01/28 09:59:19;;;;;;;44.13;40.50;;;;;;;;;;4210516;28;20190;-61
2024/01/28 10:01:21;;;;;;;50.50;45.53;;;;;;;;;;4211912;28;20044;-61
2024/01/28 10:03:22;;;;;;;43.93;40.77;;;;;;;;;;4205626;28;20677;-61
2024/01/28 10:05:24;;;;;;;42.63;39.63;;;;;;;;;;4213667;28;20040;-61
2024/01/28 10:07:26;;;;;;;33.33;31.17;;;;;;;;;;4197900;28;20290;-62
2024/01/28 10:09:29;;;;;;;29.33;27.60;;;;;;;;;;4196868;28;20389;-62
2024/01/28 10:11:30;;;;;;;25.67;23.92;;;;;;;;;;4199529;28;20039;-61
2024/01/28 10:13:32;;;;;;;29.67;26.77;;;;;;;;;;4211208;28;20067;-62
2024/01/28 10:15:34;;;;;;;16.63;16.02;;;;;;;;;;4206328;28;20040;-62
2024/01/28 10:17:36;;;;;;;25.27;23.30;;;;;;;;;;4213206;28;20036;-62
2024/01/28 10:19:39;;;;;;;21.92;20.83;;;;;;;;;;4212517;28;20090;-62
2024/01/28 10:21:44;;;;;;;15.90;15.48;;;;;;;;;;4213073;28;20036;-62
2024/01/28 10:23:45;;;;;;;15.43;15.13;;;;;;;;;;4212993;28;20119;-62
2024/01/28 10:25:47;;;;;;;13.32;12.98;;;;;;;;;;4212209;28;20040;-62
2024/01/28 10:27:49;;;;;;;11.35;11.15;;;;;;;;;;4210392;28;20111;-62
2024/01/28 10:29:51;;;;;;;9.40;8.77;;;;;;;;;;4212717;28;20089;-62
2024/01/28 10:31:53;;;;;;;15.67;14.43;;;;;;;;;;4212933;28;20028;-62
2024/01/28 10:33:54;;;;;;;13.20;12.47;;;;;;;;;;4212017;28;20082;-62
2024/01/28 10:36:01;;;;;;;17.00;15.80;;;;;;;;;;4213031;28;20043;-62
2024/01/28 10:38:03;;;;;;;19.45;18.33;;;;;;;;;;4212230;28;20270;-62
2024/01/28 10:40:07;;;;;;;23.67;22.15;;;;;;;;;;4213010;28;20089;-62
2024/01/28 10:42:12;;;;;;;20.50;19.30;;;;;;;;;;4213321;28;20040;-62
2024/01/28 10:44:14;;;;;;;19.63;18.85;;;;;;;;;;4213513;28;20556;-62
2024/01/28 10:46:17;;;;;;;;;;;;;;;;;;4213842;28;20488;-62
2024/01/28 10:48:19;;;;;;;9.85;9.63;;;;;;;;;;4205385;28;19921;-62
2024/01/28 10:50:22;;;;;;;8.32;8.10;;;;;;;;;;4196444;28;20052;-62
2024/01/28 10:52:24;;;;;;;5.38;5.28;;;;;;;;;;4196384;28;20037;-63
2024/01/28 10:54:27;;;;;;;5.82;5.72;;;;;;;;;;4196897;28;20044;-62
2024/01/28 10:56:29;;;;;;;13.43;12.40;;;;;;;;;;4196724;28;20036;-63
2024/01/28 10:58:32;;;;;;;15.85;14.35;;;;;;;;;;4196562;28;20377;-63
2024/01/28 11:00:35;;;;;;;11.88;11.10;;;;;;;;;;4215653;28;20105;-62
2024/01/28 11:02:39;;;;;;;19.35;17.55;;;;;;;;;;4210904;28;20054;-63
2024/01/28 11:04:42;;;;;;;17.52;16.58;;;;;;;;;;4209676;28;20051;-63
2024/01/28 11:06:45;;;;;;;17.60;16.67;;;;;;;;;;4201366;28;20085;-63
2024/01/28 11:08:47;;;;;;;14.88;14.07;;;;;;;;;;4209459;28;20115;-62
2024/01/28 11:10:49;;;;;;;10.93;10.57;;;;;;;;;;4208663;28;20040;-62
2024/01/28 11:12:51;;;;;;;7.53;7.32;;;;;;;;;;4204061;28;20048;-62
2024/01/28 11:14:57;;;;;;;7.03;6.72;;;;;;;;;;4199210;28;20040;-62
2024/01/28 11:16:58;;;;;;;5.60;5.50;;;;;;;;;;4199531;28;20369;-63
2024/01/28 11:19:05;;;;;;;7.18;6.88;;;;;;;;;;4205914;28;20111;-62
2024/01/28 11:21:18;;;;;;;5.65;5.45;;;;;;;;;;4208011;28;20155;-62
2024/01/28 11:23:20;;;;;;;3.93;3.60;;;;;;;;;;4206145;28;20490;-63
2024/01/28 11:25:24;;;;;;;3.27;3.17;;;;;;;;;;4205384;28;20632;-62
2024/01/28 11:27:28;;;;;;;4.32;4.22;;;;;;;;;;4203076;28;21010;-63
2024/01/28 11:29:33;;;;;;;2.70;2.70;;;;;;;;;;4206112;28;20044;-62
2024/01/28 11:31:38;;;;;;;3.13;3.13;;;;;;;;;;4208957;28;20047;-62
2024/01/28 11:33:45;;;;;;;3.50;3.40;;;;;;;;;;4206630;28;20105;-62
2024/01/28 11:35:47;;;;;;;2.80;2.80;;;;;;;;;;4210240;28;20507;-62
2024/01/28 11:37:57;;;;;;;4.15;4.05;;;;;;;;;;4211209;28;20043;-62
2024/01/28 11:40:04;;;;;;;4.90;4.80;;;;;;;;;;4208360;28;20037;-62
2024/01/28 11:42:06;;;;;;;6.82;6.63;;;;;;;;;;4212944;28;20451;-62
2024/01/28 11:44:09;;;;;;;4.70;4.60;;;;;;;;;;4205611;28;20040;-62
2024/01/28 11:46:11;;;;;;;2.58;2.58;;;;;;;;;;4214418;28;20506;-62
2024/01/28 11:48:12;;;;;;;2.40;2.40;;;;;;;;;;4214654;28;20054;-63
2024/01/28 11:50:15;;;;;;;4.25;4.05;;;;;;;;;;4210036;28;20047;-62
2024/01/28 11:52:17;;;;;;;4.18;4.07;;;;;;;;;;4208117;28;20052;-62
2024/01/28 11:54:19;;;;;;;5.88;5.68;;;;;;;;;;4210549;28;20040;-63
2024/01/28 11:56:20;;;;;;;6.43;6.13;;;;;;;;;;4210722;28;20510;-62